In Rescue
 
Open Full Screen Window  High Contrast Mode
July 25, 2021 7:00 AM CDT
Present Weather: Mist
Weather Information
Wind Direction
  ---
Wind Speed
  00 kt (0 mph)
Wind Gust
  00 kt (0 mph)
Altimeter
30.04 in
Visibility
5 SM
Temperature
16° C
61° F
Dewpoint
15° C
59° F
Humidity
94%
1hr Rain Fall
00.00 in.
24hr Rain Fall
00.00 in.
Sky Condition
Clear
MVFR

METAR KGHW 251200Z AUTO 00000KT 5SM BR CLR 16/15 A3004 RMK AO2

FAA Disclaimer: The data displayed is for advisory purposes only and is not to be used for flight planning or operations.